createdAt,value
2023-01-03T00:03:05.040Z,16.70
2023-01-03T00:08:12.437Z,20.30
2023-01-03T00:13:19.375Z,16.00
2023-01-03T00:18:29.217Z,17.60
2023-01-03T00:23:36.143Z,18.40
2023-01-03T00:28:43.078Z,16.40
2023-01-03T00:33:50.259Z,15.00
2023-01-03T00:38:57.239Z,16.40
2023-01-03T00:44:04.524Z,11.80
2023-01-03T00:49:12.360Z,8.40
2023-01-03T00:54:19.298Z,10.40
2023-01-03T00:59:27.099Z,8.10
2023-01-03T01:04:35.507Z,6.30
2023-01-03T01:09:42.749Z,9.60
2023-01-03T01:14:49.661Z,7.90
2023-01-03T01:19:59.194Z,9.50
2023-01-03T01:25:06.979Z,7.70
2023-01-03T01:30:14.341Z,7.00
2023-01-03T01:35:21.348Z,7.90
2023-01-03T01:40:28.837Z,7.80
2023-01-03T01:45:38.294Z,6.80
2023-01-03T01:50:54.259Z,8.10
2023-01-03T01:56:07.454Z,8.90
2023-01-03T02:01:17.839Z,10.20
2023-01-03T02:06:26.004Z,7.80
2023-01-03T02:11:42.032Z,9.20
2023-01-03T02:17:01.653Z,12.30
2023-01-03T02:22:25.306Z,10.00
2023-01-03T02:28:01.997Z,9.70
2023-01-03T02:33:19.951Z,10.20
2023-01-03T02:38:35.671Z,13.50
2023-01-03T02:43:52.391Z,9.90
2023-01-03T02:49:05.465Z,11.30
2023-01-03T02:54:16.793Z,14.20
2023-01-03T02:59:35.250Z,12.60
2023-01-03T03:04:47.313Z,15.40
2023-01-03T03:10:11.892Z,13.30
2023-01-03T03:15:23.322Z,15.90
2023-01-03T03:20:48.161Z,13.40
2023-01-03T03:25:59.393Z,11.40
2023-01-03T03:31:10.497Z,14.00
2023-01-03T03:36:25.569Z,11.90
2023-01-03T03:41:58.662Z,10.70
2023-01-03T03:47:11.539Z,11.80
2023-01-03T03:52:22.322Z,6.80
2023-01-03T03:57:34.044Z,7.90
2023-01-03T04:07:47.125Z,7.80
2023-01-03T04:12:54.649Z,6.90
2023-01-03T04:18:03.254Z,5.90
2023-01-03T04:23:10.239Z,9.30
2023-01-03T04:28:17.554Z,8.70
2023-01-03T04:33:25.084Z,5.20
2023-01-03T04:38:32.084Z,6.30
2023-01-03T04:43:56.715Z,9.40
2023-01-03T04:49:05.165Z,8.60
2023-01-03T04:54:12.173Z,9.20
2023-01-03T04:59:19.124Z,8.60
2023-01-03T05:04:26.176Z,7.40
2023-01-03T05:09:35.775Z,7.70
2023-01-03T05:14:42.777Z,6.20
2023-01-03T05:20:08.050Z,20.50
2023-01-03T05:25:28.843Z,11.30
2023-01-03T05:30:35.855Z,9.10
2023-01-03T05:35:42.800Z,8.00
2023-01-03T05:40:49.761Z,11.50
2023-01-03T05:45:56.749Z,9.00
2023-01-03T05:51:03.760Z,7.30
2023-01-03T05:56:11.182Z,8.00
2023-01-03T06:01:18.962Z,7.00
2023-01-03T06:06:26.010Z,9.10
2023-01-03T06:11:32.962Z,7.20
2023-01-03T06:17:06.061Z,7.50
2023-01-03T06:22:13.259Z,8.00
2023-01-03T06:27:20.309Z,6.60
2023-01-03T06:32:27.446Z,6.70
2023-01-03T06:37:34.368Z,5.60
2023-01-03T06:42:44.288Z,7.10
2023-01-03T06:48:09.000Z,5.70
2023-01-03T06:53:18.295Z,7.20
2023-01-03T06:58:25.330Z,5.80
2023-01-03T07:03:32.724Z,7.90
2023-01-03T07:08:44.230Z,7.90
2023-01-03T07:14:03.514Z,7.00
2023-01-03T07:19:12.852Z,6.10
2023-01-03T07:24:19.968Z,5.80
2023-01-03T07:29:26.935Z,6.20
2023-01-03T07:34:33.938Z,6.00
2023-01-03T07:39:40.884Z,6.60
2023-01-03T07:44:47.840Z,5.50
2023-01-03T07:49:54.869Z,6.00
2023-01-03T07:55:01.900Z,7.60
2023-01-03T08:00:10.912Z,7.20
2023-01-03T08:05:19.457Z,14.30
2023-01-03T08:10:42.857Z,8.80
2023-01-03T08:15:52.981Z,11.30
2023-01-03T08:21:00.131Z,12.00
2023-01-03T08:26:09.518Z,9.10
2023-01-03T08:31:22.830Z,7.40
2023-01-03T08:36:34.387Z,10.80
2023-01-03T08:41:45.050Z,10.60
2023-01-03T08:46:54.585Z,10.30
2023-01-03T08:52:01.606Z,10.70
2023-01-03T08:57:08.535Z,9.50
2023-01-03T09:02:15.628Z,9.70
2023-01-03T09:07:22.811Z,11.60
2023-01-03T09:12:29.813Z,11.10
2023-01-03T09:17:36.944Z,7.70
2023-01-03T09:22:44.222Z,9.90
2023-01-03T09:27:51.258Z,10.60
2023-01-03T09:32:58.104Z,9.10
2023-01-03T09:38:05.049Z,12.80
2023-01-03T09:43:24.684Z,9.30
2023-01-03T09:48:37.295Z,8.80
2023-01-03T09:54:02.392Z,11.60
2023-01-03T09:59:40.750Z,9.30
2023-01-03T10:05:09.743Z,8.70
2023-01-03T10:10:24.045Z,11.30
2023-01-03T10:15:44.938Z,9.90
2023-01-03T10:20:55.385Z,9.40
2023-01-03T10:26:02.873Z,8.10
2023-01-03T10:31:29.164Z,8.10
2023-01-03T10:36:36.133Z,11.10
2023-01-03T10:41:47.124Z,7.90
2023-01-03T10:46:56.391Z,8.70
2023-01-03T10:52:10.785Z,6.40
2023-01-03T10:57:43.684Z,7.30
2023-01-03T11:02:51.673Z,7.50
2023-01-03T11:08:01.047Z,6.10
2023-01-03T11:13:23.980Z,6.30
2023-01-03T11:18:33.666Z,5.60
2023-01-03T11:23:59.018Z,5.70
2023-01-03T11:29:44.344Z,8.50
2023-01-03T11:35:22.972Z,4.90
2023-01-03T11:40:44.435Z,6.20
2023-01-03T11:46:10.378Z,6.30
2023-01-03T11:51:24.308Z,8.20
2023-01-03T11:56:36.038Z,4.60
2023-01-03T12:13:05.370Z,3.80
2023-01-03T12:18:23.424Z,6.90
2023-01-03T12:23:39.241Z,4.10
2023-01-03T12:28:53.635Z,5.30
2023-01-03T12:34:10.314Z,7.30
2023-01-03T12:39:34.408Z,3.40
2023-01-03T12:44:44.688Z,5.60
2023-01-03T12:49:58.417Z,6.90
2023-01-03T12:55:14.873Z,4.00
2023-01-03T13:00:32.485Z,5.60
2023-01-03T13:05:47.725Z,5.60
2023-01-03T13:10:59.067Z,4.90
2023-01-03T13:16:33.407Z,4.60
2023-01-03T13:22:06.213Z,8.80
2023-01-03T13:27:37.625Z,7.90
2023-01-03T13:32:53.481Z,5.60
2023-01-03T13:38:12.830Z,6.70
2023-01-03T13:43:29.942Z,4.90
2023-01-03T13:48:56.684Z,6.10
2023-01-03T13:54:07.357Z,9.00
2023-01-03T13:59:27.166Z,8.30
2023-01-03T14:05:00.793Z,8.20
2023-01-03T14:10:22.715Z,6.30
2023-01-03T14:20:38.613Z,7.80
2023-01-03T14:25:46.599Z,4.50
2023-01-03T14:31:03.546Z,4.40
2023-01-03T14:36:14.778Z,6.30
2023-01-03T14:41:35.251Z,6.60
2023-01-03T14:46:53.272Z,6.00
2023-01-03T14:52:09.847Z,7.90
2023-01-03T14:57:22.471Z,7.80
2023-01-03T15:02:37.240Z,10.80
2023-01-03T15:07:45.084Z,8.20
2023-01-03T15:13:04.566Z,11.10
2023-01-03T15:18:23.124Z,11.50
2023-01-03T15:23:41.645Z,11.40
2023-01-03T15:28:56.383Z,14.70
2023-01-03T15:34:13.197Z,17.10
2023-01-03T15:39:24.011Z,16.20
2023-01-03T15:44:33.544Z,16.40
2023-01-03T15:49:43.806Z,22.40
2023-01-03T15:54:51.224Z,25.90
2023-01-03T16:00:02.477Z,30.00
2023-01-03T16:05:23.679Z,30.60
2023-01-03T16:10:31.558Z,31.40
2023-01-03T16:15:43.830Z,37.70
2023-01-03T16:20:51.697Z,45.60
2023-01-03T16:25:59.423Z,96.10
2023-01-03T16:31:15.314Z,203.90
2023-01-03T16:36:31.806Z,88.10
2023-01-03T16:41:38.799Z,102.30
2023-01-03T16:46:46.489Z,111.80
2023-01-03T16:51:57.528Z,106.80
2023-01-03T16:57:05.180Z,138.30
2023-01-03T17:02:12.723Z,119.70
2023-01-03T17:07:25.148Z,100.40
2023-01-03T17:17:37.561Z,298.90
2023-01-03T17:22:58.749Z,316.30
2023-01-03T17:28:14.028Z,182.90
2023-01-03T17:33:33.618Z,192.00
2023-01-03T17:38:41.293Z,283.10
2023-01-03T17:44:03.361Z,197.80
2023-01-03T17:49:28.224Z,204.30
2023-01-03T17:54:38.116Z,157.70
2023-01-03T17:59:45.303Z,169.70
2023-01-03T18:10:28.397Z,293.70
2023-01-03T18:15:35.439Z,151.60
2023-01-03T18:20:42.723Z,176.70
2023-01-03T18:25:49.970Z,155.10
2023-01-03T18:30:58.156Z,153.60
2023-01-03T18:36:08.158Z,134.70
2023-01-03T18:41:28.489Z,142.40
2023-01-03T18:46:35.748Z,190.80
2023-01-03T18:51:49.283Z,216.00
2023-01-03T18:56:56.500Z,266.70
2023-01-03T19:02:04.034Z,214.30
2023-01-03T19:07:18.701Z,186.10
2023-01-03T19:12:26.407Z,156.30
2023-01-03T19:17:33.618Z,165.90
2023-01-03T19:22:42.118Z,184.20
2023-01-03T19:27:50.262Z,208.60
2023-01-03T19:32:59.253Z,181.10
2023-01-03T19:38:06.252Z,160.30
2023-01-03T19:43:21.862Z,167.00
2023-01-03T19:48:32.450Z,172.20
2023-01-03T19:53:39.639Z,152.90
2023-01-03T19:58:46.777Z,162.20
2023-01-03T20:03:53.868Z,130.50
2023-01-03T20:09:02.725Z,112.40
2023-01-03T20:14:20.233Z,135.30
2023-01-03T20:19:27.896Z,192.90
2023-01-03T20:24:36.458Z,166.50
2023-01-03T20:29:44.192Z,184.80
2023-01-03T20:34:51.533Z,173.20
2023-01-03T20:39:59.479Z,161.40
2023-01-03T20:45:08.662Z,146.00
2023-01-03T20:50:20.077Z,163.40
2023-01-03T20:55:28.232Z,145.90
2023-01-03T21:00:43.385Z,148.50
2023-01-03T21:06:19.499Z,131.00
2023-01-03T21:11:30.726Z,148.80
2023-01-03T21:16:42.232Z,135.20
2023-01-03T21:22:05.224Z,146.40
2023-01-03T21:27:20.457Z,141.30
2023-01-03T21:32:27.591Z,140.80
2023-01-03T21:37:42.093Z,130.40
2023-01-03T21:43:06.684Z,125.20
2023-01-03T21:48:15.379Z,127.70
2023-01-03T21:53:24.567Z,128.50
2023-01-03T21:58:32.688Z,122.40
2023-01-03T22:03:57.981Z,130.00
2023-01-03T22:09:07.362Z,123.10
2023-01-03T22:14:22.076Z,156.10
2023-01-03T22:19:29.083Z,124.20
2023-01-03T22:24:39.559Z,114.60
2023-01-03T22:29:46.505Z,112.70
2023-01-03T22:34:53.433Z,100.20
2023-01-03T22:40:00.399Z,104.20
2023-01-03T22:45:10.310Z,101.80
2023-01-03T22:50:17.333Z,93.90
2023-01-03T22:55:28.329Z,97.60
2023-01-03T23:00:39.591Z,93.50
2023-01-03T23:05:46.563Z,96.20
2023-01-03T23:11:13.448Z,89.40
2023-01-03T23:16:20.505Z,96.00
2023-01-03T23:21:27.580Z,103.30
2023-01-03T23:26:34.597Z,108.10
2023-01-03T23:31:41.444Z,108.60
2023-01-03T23:36:48.406Z,108.50
2023-01-03T23:41:55.362Z,108.20
2023-01-03T23:47:07.646Z,109.00
2023-01-03T23:52:18.284Z,104.90
2023-01-03T23:57:25.189Z,116.70
